createdAt,value
2018-12-21T00:02:04.013Z,2.33
2018-12-21T00:04:36.876Z,2.33
2018-12-21T00:07:09.783Z,2.30
2018-12-21T00:09:42.636Z,2.40
2018-12-21T00:12:15.522Z,2.30
2018-12-21T00:14:48.398Z,2.63
2018-12-21T00:17:21.284Z,2.50
2018-12-21T00:19:54.166Z,2.70
2018-12-21T00:22:27.062Z,2.17
2018-12-21T00:24:59.926Z,2.37
2018-12-21T00:27:32.824Z,2.57
2018-12-21T00:30:09.086Z,2.63
2018-12-21T00:32:47.723Z,2.50
2018-12-21T00:35:26.196Z,2.67
2018-12-21T00:38:05.711Z,2.13
2018-12-21T00:40:44.386Z,2.43
2018-12-21T00:43:24.614Z,2.10
2018-12-21T00:45:59.464Z,2.50
2018-12-21T00:48:32.348Z,2.50
2018-12-21T00:51:05.318Z,2.40
2018-12-21T00:53:38.213Z,2.30
2018-12-21T00:56:11.142Z,2.60
2018-12-21T00:58:44.046Z,2.70
2018-12-21T01:01:16.906Z,2.27
2018-12-21T01:03:49.880Z,2.53
2018-12-21T01:06:23.120Z,2.60
2018-12-21T01:08:56.107Z,2.30
2018-12-21T01:11:29.012Z,2.40
2018-12-21T01:14:04.629Z,2.20
2018-12-21T01:16:37.529Z,2.23
2018-12-21T01:19:10.481Z,2.30
2018-12-21T01:21:43.376Z,2.23
2018-12-21T01:24:16.257Z,2.47
2018-12-21T01:26:49.117Z,2.70
2018-12-21T01:29:21.979Z,2.17
2018-12-21T01:31:54.929Z,2.53
2018-12-21T01:34:27.885Z,2.93
2018-12-21T01:37:00.733Z,2.70
2018-12-21T01:39:33.618Z,2.40
2018-12-21T01:42:06.455Z,2.67
2018-12-21T01:44:39.337Z,2.50
2018-12-21T01:47:12.176Z,2.53
2018-12-21T01:49:45.232Z,3.07
2018-12-21T01:52:18.089Z,2.77
2018-12-21T01:54:50.983Z,3.13
2018-12-21T01:57:23.879Z,2.40
2018-12-21T01:59:56.817Z,3.10
2018-12-21T02:02:29.675Z,3.10
2018-12-21T02:05:02.566Z,2.97
2018-12-21T02:07:35.410Z,3.10
2018-12-21T02:10:08.437Z,3.20
2018-12-21T02:12:41.301Z,2.80
2018-12-21T02:15:14.208Z,2.87
2018-12-21T02:17:47.047Z,2.60
2018-12-21T02:20:19.999Z,2.70
2018-12-21T02:22:52.859Z,2.90
2018-12-21T02:25:27.840Z,2.43
2018-12-21T02:28:00.710Z,2.63
2018-12-21T02:30:33.581Z,3.00
2018-12-21T02:33:02.733Z,2.77
2018-12-21T02:35:35.639Z,2.63
2018-12-21T02:38:08.532Z,2.70
2018-12-21T02:40:41.424Z,2.50
2018-12-21T02:43:14.299Z,2.80
2018-12-21T02:45:47.218Z,2.70
2018-12-21T02:48:20.069Z,3.10
2018-12-21T02:50:52.957Z,2.60
2018-12-21T02:53:25.811Z,2.80
2018-12-21T02:55:58.753Z,2.90
2018-12-21T02:58:31.688Z,2.50
2018-12-21T03:01:04.559Z,2.47
2018-12-21T03:03:39.122Z,2.10
2018-12-21T03:06:12.000Z,2.20
2018-12-21T03:08:44.973Z,2.50
2018-12-21T03:11:18.006Z,2.40
2018-12-21T03:13:50.952Z,2.50
2018-12-21T03:16:23.856Z,2.60
2018-12-21T03:18:56.719Z,2.10
2018-12-21T03:21:29.618Z,2.30
2018-12-21T03:24:02.472Z,2.80
2018-12-21T03:26:35.357Z,2.93
2018-12-21T03:29:08.235Z,2.53
2018-12-21T03:31:41.125Z,2.00
2018-12-21T03:34:14.005Z,2.63
2018-12-21T03:36:46.876Z,2.87
2018-12-21T03:39:19.761Z,2.63
2018-12-21T03:41:52.649Z,2.50
2018-12-21T03:44:25.582Z,2.60
2018-12-21T03:46:58.588Z,2.80
2018-12-21T03:49:31.444Z,2.63
2018-12-21T03:52:04.390Z,3.00
2018-12-21T03:54:37.243Z,2.60
2018-12-21T03:57:10.145Z,2.60
2018-12-21T03:59:42.973Z,3.20
2018-12-21T04:02:15.867Z,2.37
2018-12-21T04:04:48.776Z,2.60
2018-12-21T04:07:21.678Z,2.57
2018-12-21T04:09:54.585Z,2.87
2018-12-21T04:12:27.438Z,2.80
2018-12-21T04:15:00.387Z,2.70
2018-12-21T04:17:33.259Z,2.67
2018-12-21T04:20:06.204Z,2.37
2018-12-21T04:22:39.107Z,3.03
2018-12-21T04:25:11.936Z,2.97
2018-12-21T04:27:44.809Z,2.50
2018-12-21T04:30:17.678Z,2.90
2018-12-21T04:32:50.581Z,2.17
2018-12-21T04:35:23.439Z,2.50
2018-12-21T04:37:56.357Z,2.77
2018-12-21T04:40:29.263Z,2.40
2018-12-21T04:43:02.118Z,2.83
2018-12-21T04:45:34.994Z,2.60
2018-12-21T04:48:07.888Z,3.00
2018-12-21T04:50:40.715Z,2.93
2018-12-21T04:53:14.113Z,2.50
2018-12-21T04:55:47.011Z,2.23
2018-12-21T04:58:19.876Z,2.30
2018-12-21T05:00:52.737Z,2.20
2018-12-21T05:03:25.677Z,1.83
2018-12-21T05:05:58.529Z,1.93
2018-12-21T05:08:31.412Z,1.97
2018-12-21T05:11:04.301Z,2.53
2018-12-21T05:13:37.192Z,2.60
2018-12-21T05:16:10.049Z,2.43
2018-12-21T05:18:42.948Z,2.20
2018-12-21T05:21:15.800Z,1.57
2018-12-21T05:23:48.705Z,1.90
2018-12-21T05:26:21.580Z,1.70
2018-12-21T05:28:54.510Z,1.70
2018-12-21T05:31:28.457Z,2.03
2018-12-21T05:34:01.683Z,1.60
2018-12-21T05:36:34.545Z,1.70
2018-12-21T05:39:08.957Z,1.70
2018-12-21T05:41:41.945Z,1.60
2018-12-21T05:44:16.456Z,2.17
2018-12-21T05:46:50.079Z,1.80
2018-12-21T05:49:23.005Z,1.60
2018-12-21T05:51:55.863Z,1.80
2018-12-21T05:54:28.800Z,1.93
2018-12-21T05:57:01.684Z,1.90
2018-12-21T05:59:34.768Z,1.70
2018-12-21T06:02:07.678Z,1.87
2018-12-21T06:04:40.563Z,2.20
2018-12-21T06:07:13.450Z,2.00
2018-12-21T06:09:46.345Z,1.97
2018-12-21T06:12:19.257Z,2.40
2018-12-21T06:14:52.123Z,2.70
2018-12-21T06:17:25.008Z,2.23
2018-12-21T06:19:57.889Z,2.37
2018-12-21T06:22:30.752Z,2.40
2018-12-21T06:25:03.897Z,2.47
2018-12-21T06:27:36.765Z,2.30
2018-12-21T06:30:09.732Z,2.43
2018-12-21T06:32:42.619Z,2.47
2018-12-21T06:35:15.481Z,2.40
2018-12-21T06:37:48.620Z,2.10
2018-12-21T06:40:21.660Z,2.10
2018-12-21T06:42:54.551Z,2.13
2018-12-21T06:45:27.560Z,2.50
2018-12-21T06:48:00.442Z,2.37
2018-12-21T06:50:33.322Z,2.20
2018-12-21T06:53:06.158Z,2.20
2018-12-21T06:55:39.124Z,1.87
2018-12-21T06:58:11.979Z,2.20
2018-12-21T07:00:44.841Z,1.93
2018-12-21T07:03:17.692Z,1.80
2018-12-21T07:05:50.601Z,2.03
2018-12-21T07:08:23.499Z,2.30
2018-12-21T07:10:56.419Z,2.10
2018-12-21T07:13:29.274Z,2.17
2018-12-21T07:16:02.169Z,2.80
2018-12-21T07:18:35.000Z,2.17
2018-12-21T07:21:07.906Z,1.67
2018-12-21T07:23:41.686Z,1.93
2018-12-21T07:26:14.567Z,2.03
2018-12-21T07:28:47.407Z,1.77
2018-12-21T07:31:20.291Z,2.13
2018-12-21T07:33:53.133Z,2.10
2018-12-21T07:36:26.142Z,1.87
2018-12-21T07:38:58.977Z,1.80
2018-12-21T07:41:31.841Z,2.03
2018-12-21T07:44:04.722Z,2.07
2018-12-21T07:46:37.574Z,2.07
2018-12-21T07:49:10.460Z,1.63
2018-12-21T07:51:43.361Z,2.00
2018-12-21T07:54:16.191Z,2.00
2018-12-21T07:56:49.069Z,1.67
2018-12-21T07:59:21.909Z,1.90
2018-12-21T08:01:54.813Z,1.30
2018-12-21T08:04:27.665Z,1.67
2018-12-21T08:07:00.612Z,1.50
2018-12-21T08:09:33.444Z,1.87
2018-12-21T08:12:06.348Z,1.40
2018-12-21T08:14:35.435Z,1.77
2018-12-21T08:17:08.377Z,2.37
2018-12-21T08:19:41.245Z,1.60
2018-12-21T08:22:14.176Z,1.60
2018-12-21T08:24:47.409Z,2.47
2018-12-21T08:27:20.371Z,1.70
2018-12-21T08:29:53.202Z,1.57
2018-12-21T08:32:26.114Z,2.00
2018-12-21T08:34:58.992Z,1.70
2018-12-21T08:37:31.884Z,1.47
2018-12-21T08:40:06.986Z,1.70
2018-12-21T08:42:39.889Z,1.90
2018-12-21T08:45:12.809Z,1.70
2018-12-21T08:47:45.740Z,2.37
2018-12-21T08:50:18.603Z,2.13
2018-12-21T08:52:51.520Z,2.20
2018-12-21T08:55:24.405Z,2.00
2018-12-21T08:57:57.363Z,1.73
2018-12-21T09:00:30.260Z,2.30
2018-12-21T09:03:03.232Z,2.10
2018-12-21T09:05:36.190Z,2.00
2018-12-21T09:08:09.125Z,1.87
2018-12-21T09:10:42.000Z,2.23
2018-12-21T09:13:14.884Z,2.10
2018-12-21T09:15:47.792Z,2.37
2018-12-21T09:18:20.783Z,2.30
2018-12-21T09:20:53.656Z,2.33
2018-12-21T09:23:26.546Z,2.20
2018-12-21T09:25:59.408Z,2.37
2018-12-21T09:28:32.356Z,1.90
2018-12-21T09:31:05.223Z,3.40
2018-12-21T09:33:38.138Z,1.60
2018-12-21T09:36:10.997Z,1.60
2018-12-21T09:38:43.917Z,1.67
2018-12-21T09:41:16.778Z,1.60
2018-12-21T09:43:49.722Z,1.53
2018-12-21T09:46:22.637Z,1.53
2018-12-21T09:48:55.531Z,1.77
2018-12-21T09:51:28.417Z,1.80
2018-12-21T09:54:09.631Z,1.30
2018-12-21T09:56:36.177Z,1.30
2018-12-21T09:59:09.068Z,1.80
2018-12-21T10:01:41.945Z,2.13
2018-12-21T10:04:18.037Z,1.30
2018-12-21T10:06:50.923Z,1.80
2018-12-21T10:09:23.833Z,1.00
2018-12-21T10:11:56.747Z,1.30
2018-12-21T10:14:29.664Z,0.97
2018-12-21T10:17:02.581Z,1.63
2018-12-21T10:19:35.521Z,1.40
2018-12-21T10:22:08.383Z,1.50
2018-12-21T10:24:41.249Z,0.90
2018-12-21T10:27:14.097Z,0.97
2018-12-21T10:29:47.005Z,1.30
2018-12-21T10:32:19.880Z,1.33
2018-12-21T10:34:52.784Z,1.03
2018-12-21T10:37:25.667Z,1.50
2018-12-21T10:39:55.599Z,1.40
2018-12-21T10:42:28.442Z,1.30
2018-12-21T10:45:01.366Z,1.40
2018-12-21T10:47:34.284Z,1.17
2018-12-21T10:50:09.215Z,1.00
2018-12-21T10:52:42.239Z,1.50
2018-12-21T10:55:15.216Z,1.20
2018-12-21T10:57:48.113Z,1.40
2018-12-21T11:00:21.056Z,1.20
2018-12-21T11:02:53.910Z,1.50
2018-12-21T11:05:26.898Z,1.30
2018-12-21T11:07:59.746Z,0.93
2018-12-21T11:10:32.694Z,1.00
2018-12-21T11:13:05.608Z,0.90
2018-12-21T11:15:38.500Z,1.20
2018-12-21T11:18:11.421Z,1.20
2018-12-21T11:20:44.282Z,1.50
2018-12-21T11:23:17.187Z,1.10
2018-12-21T11:25:50.078Z,0.93
2018-12-21T11:28:25.499Z,1.20
2018-12-21T11:30:57.898Z,1.00
2018-12-21T11:33:30.760Z,0.90
2018-12-21T11:36:03.744Z,0.70
2018-12-21T11:38:36.616Z,1.07
2018-12-21T11:41:09.518Z,0.80
2018-12-21T11:43:42.452Z,0.80
2018-12-21T11:46:15.326Z,1.00
2018-12-21T11:48:48.243Z,1.13
2018-12-21T11:51:21.267Z,0.70
2018-12-21T11:53:54.200Z,0.80
2018-12-21T11:56:27.127Z,0.80
2018-12-21T11:59:00.056Z,1.03
2018-12-21T12:01:33.053Z,0.60
2018-12-21T12:04:05.964Z,0.70
2018-12-21T12:06:39.009Z,0.80
2018-12-21T12:09:11.893Z,0.60
2018-12-21T12:11:44.891Z,0.70
2018-12-21T12:14:17.744Z,0.60
2018-12-21T12:16:50.656Z,0.70
2018-12-21T12:19:23.502Z,0.67
2018-12-21T12:21:56.397Z,0.63
2018-12-21T12:24:29.484Z,0.80
2018-12-21T12:27:02.357Z,0.67
2018-12-21T12:29:35.254Z,0.77
2018-12-21T12:32:08.100Z,0.80
2018-12-21T12:34:40.985Z,0.90
2018-12-21T12:37:14.280Z,1.00
2018-12-21T12:39:47.611Z,0.80
2018-12-21T12:42:20.494Z,0.80
2018-12-21T12:44:53.387Z,1.10
2018-12-21T12:47:26.633Z,1.00
2018-12-21T12:49:59.548Z,0.97
2018-12-21T12:52:32.998Z,1.00
2018-12-21T12:55:06.476Z,1.00
2018-12-21T12:57:39.392Z,0.80
2018-12-21T13:00:12.371Z,0.93
2018-12-21T13:02:45.358Z,0.93
2018-12-21T13:05:18.329Z,0.70
2018-12-21T13:07:51.305Z,1.10
2018-12-21T13:10:24.490Z,0.90
2018-12-21T13:12:58.671Z,0.90
2018-12-21T13:15:31.727Z,0.90
2018-12-21T13:18:04.705Z,1.10
2018-12-21T13:20:37.630Z,0.90
2018-12-21T13:23:10.557Z,0.90
2018-12-21T13:25:43.517Z,0.90
2018-12-21T13:28:16.455Z,0.80
2018-12-21T13:30:49.361Z,1.00
2018-12-21T13:33:22.306Z,0.80
2018-12-21T13:35:55.191Z,0.90
2018-12-21T13:38:28.874Z,0.87
2018-12-21T13:41:01.755Z,0.97
2018-12-21T13:43:34.906Z,1.03
2018-12-21T13:46:07.991Z,1.00
2018-12-21T13:48:41.063Z,1.07
2018-12-21T13:51:14.014Z,1.17
2018-12-21T13:53:47.022Z,1.10
2018-12-21T13:56:19.935Z,0.83
2018-12-21T13:58:52.842Z,0.90
2018-12-21T14:01:25.822Z,1.00
2018-12-21T14:03:58.783Z,1.17
2018-12-21T14:06:31.845Z,0.73
2018-12-21T14:09:06.416Z,1.03
2018-12-21T14:11:39.359Z,1.10
2018-12-21T14:14:12.308Z,0.90
2018-12-21T14:16:45.287Z,1.00
2018-12-21T14:19:18.224Z,1.17
2018-12-21T14:21:51.223Z,1.27
2018-12-21T14:24:24.236Z,2.70
2018-12-21T14:26:57.130Z,1.40
2018-12-21T14:29:30.851Z,1.47
2018-12-21T14:32:03.717Z,1.63
2018-12-21T14:34:40.809Z,2.10
2018-12-21T14:37:14.244Z,1.20
2018-12-21T14:39:47.163Z,0.90
2018-12-21T14:42:20.096Z,1.00
2018-12-21T14:44:53.010Z,1.03
2018-12-21T14:47:26.340Z,1.13
2018-12-21T14:49:59.278Z,1.10
2018-12-21T14:52:32.251Z,1.07
2018-12-21T14:55:06.378Z,2.43
2018-12-21T14:57:39.313Z,1.57
2018-12-21T15:00:12.682Z,1.20
2018-12-21T15:02:45.561Z,1.00
2018-12-21T15:05:19.010Z,1.50
2018-12-21T15:07:52.087Z,2.20
2018-12-21T15:10:25.288Z,1.70
2018-12-21T15:12:58.320Z,1.70
2018-12-21T15:15:31.259Z,1.27
2018-12-21T15:18:04.170Z,1.10
2018-12-21T15:20:37.471Z,0.73
2018-12-21T15:23:10.327Z,0.67
2018-12-21T15:25:46.183Z,0.70
2018-12-21T15:28:18.124Z,0.60
2018-12-21T15:30:51.114Z,0.50
2018-12-21T15:33:24.053Z,0.60
2018-12-21T15:35:56.973Z,0.97
2018-12-21T15:38:29.909Z,0.70
2018-12-21T15:41:02.827Z,0.60
2018-12-21T15:43:35.870Z,0.50
2018-12-21T15:46:08.764Z,0.40
2018-12-21T15:48:42.759Z,0.40
2018-12-21T15:51:16.753Z,0.50
2018-12-21T15:53:51.400Z,0.60
2018-12-21T15:56:26.620Z,0.80
2018-12-21T15:59:02.461Z,0.60
2018-12-21T16:01:37.087Z,0.57
2018-12-21T16:04:10.300Z,0.50
2018-12-21T16:06:43.502Z,0.40
2018-12-21T16:09:16.412Z,0.60
2018-12-21T16:11:49.315Z,0.50
2018-12-21T16:14:22.340Z,0.70
2018-12-21T16:16:55.324Z,0.70
2018-12-21T16:19:28.252Z,0.50
2018-12-21T16:22:01.397Z,0.60
2018-12-21T16:24:34.419Z,0.70
2018-12-21T16:27:10.627Z,0.60
2018-12-21T16:29:43.633Z,0.50
2018-12-21T16:32:16.694Z,0.70
2018-12-21T16:34:49.669Z,0.80
2018-12-21T16:37:22.939Z,0.70
2018-12-21T16:39:56.201Z,0.70
2018-12-21T16:42:29.113Z,0.70
2018-12-21T16:45:02.130Z,1.10
2018-12-21T16:47:35.497Z,1.50
2018-12-21T16:50:13.052Z,1.00
2018-12-21T16:52:46.003Z,1.00
2018-12-21T16:55:19.228Z,0.80
2018-12-21T16:57:52.142Z,0.80
2018-12-21T17:00:25.250Z,0.60
2018-12-21T17:02:58.334Z,0.50
2018-12-21T17:05:31.279Z,1.13
2018-12-21T17:08:04.308Z,1.40
2018-12-21T17:10:38.643Z,0.80
2018-12-21T17:13:11.680Z,0.80
2018-12-21T17:15:44.574Z,0.60
2018-12-21T17:18:17.708Z,0.70
2018-12-21T17:20:50.742Z,0.90
2018-12-21T17:23:23.892Z,0.50
2018-12-21T17:25:58.191Z,0.67
2018-12-21T17:28:30.174Z,0.70
2018-12-21T17:31:03.111Z,0.60
2018-12-21T17:33:36.208Z,0.70
2018-12-21T17:36:09.083Z,0.50
2018-12-21T17:38:42.137Z,0.63
2018-12-21T17:41:16.694Z,0.60
2018-12-21T17:43:49.863Z,0.53
2018-12-21T17:46:22.772Z,0.70
2018-12-21T17:48:55.803Z,0.70
2018-12-21T17:51:28.882Z,0.60
2018-12-21T17:54:01.806Z,0.50
2018-12-21T17:56:34.838Z,0.70
2018-12-21T17:59:07.841Z,0.80
2018-12-21T18:01:40.879Z,1.03
2018-12-21T18:04:15.869Z,1.10
2018-12-21T18:06:48.928Z,0.60
2018-12-21T18:09:22.139Z,0.60
2018-12-21T18:11:57.297Z,0.70
2018-12-21T18:14:30.400Z,0.90
2018-12-21T18:17:03.450Z,1.30
2018-12-21T18:19:36.505Z,0.90
2018-12-21T18:22:09.547Z,0.60
2018-12-21T18:24:42.646Z,0.50
2018-12-21T18:27:15.744Z,0.70
2018-12-21T18:29:48.700Z,0.73
2018-12-21T18:32:22.042Z,0.73
2018-12-21T18:34:55.028Z,0.70
2018-12-21T18:37:28.045Z,0.80
2018-12-21T18:40:02.207Z,0.90
2018-12-21T18:42:35.262Z,0.60
2018-12-21T18:45:08.944Z,0.70
2018-12-21T18:47:41.838Z,0.50
2018-12-21T18:50:14.867Z,0.53
2018-12-21T18:52:47.837Z,0.83
2018-12-21T18:55:20.774Z,0.70
2018-12-21T18:57:53.871Z,2.37
2018-12-21T19:00:27.074Z,0.90
2018-12-21T19:02:59.955Z,0.63
2018-12-21T19:05:33.082Z,0.60
2018-12-21T19:08:06.182Z,0.70
2018-12-21T19:10:42.594Z,1.00
2018-12-21T19:13:15.459Z,0.60
2018-12-21T19:15:49.857Z,0.70
2018-12-21T19:18:23.019Z,0.70
2018-12-21T19:20:55.988Z,0.70
2018-12-21T19:23:29.389Z,0.60
2018-12-21T19:26:02.474Z,0.50
2018-12-21T19:28:35.475Z,0.50
2018-12-21T19:31:09.346Z,0.50
2018-12-21T19:33:42.970Z,0.70
2018-12-21T19:36:16.133Z,0.60
2018-12-21T19:38:52.653Z,0.67
2018-12-21T19:41:25.584Z,0.70
2018-12-21T19:43:58.574Z,0.43
2018-12-21T19:46:31.554Z,0.50
2018-12-21T19:49:04.727Z,0.70
2018-12-21T19:51:37.738Z,0.83
2018-12-21T19:54:11.094Z,0.50
2018-12-21T19:56:46.823Z,0.50
2018-12-21T19:59:19.967Z,0.50
2018-12-21T20:01:52.979Z,0.70
2018-12-21T20:04:25.985Z,0.70
2018-12-21T20:06:59.209Z,0.80
2018-12-21T20:09:33.389Z,0.60
2018-12-21T20:12:06.367Z,0.90
2018-12-21T20:14:39.308Z,0.63
2018-12-21T20:17:12.279Z,0.60
2018-12-21T20:19:45.243Z,0.60
2018-12-21T20:22:18.165Z,0.80
2018-12-21T20:24:51.176Z,0.70
2018-12-21T20:27:24.195Z,0.70
2018-12-21T20:29:57.081Z,0.60
2018-12-21T20:32:29.999Z,0.67
2018-12-21T20:35:03.211Z,0.73
2018-12-21T20:37:36.210Z,0.70
2018-12-21T20:40:11.490Z,0.53
2018-12-21T20:42:44.484Z,0.60
2018-12-21T20:45:17.444Z,1.00
2018-12-21T20:47:52.072Z,0.53
2018-12-21T20:50:24.963Z,0.93
2018-12-21T20:52:57.902Z,1.10
2018-12-21T20:55:30.996Z,1.30
2018-12-21T20:58:04.650Z,0.60
2018-12-21T21:00:37.574Z,0.60
2018-12-21T21:03:10.617Z,0.63
2018-12-21T21:05:44.105Z,0.70
2018-12-21T21:08:17.242Z,0.50
2018-12-21T21:10:50.319Z,1.37
2018-12-21T21:13:23.243Z,0.70
2018-12-21T21:15:56.147Z,0.67
2018-12-21T21:18:31.453Z,0.60
2018-12-21T21:21:04.400Z,0.33
2018-12-21T21:23:37.330Z,0.50
2018-12-21T21:26:10.368Z,1.07
2018-12-21T21:28:44.001Z,0.50
2018-12-21T21:31:16.979Z,0.50
2018-12-21T21:33:49.914Z,0.60
2018-12-21T21:36:22.833Z,0.50
2018-12-21T21:38:55.747Z,0.50
2018-12-21T21:41:28.699Z,0.70
2018-12-21T21:44:01.656Z,0.50
2018-12-21T21:46:34.697Z,0.53
2018-12-21T21:49:07.722Z,0.60
2018-12-21T21:51:40.746Z,0.60
2018-12-21T21:54:13.696Z,0.50
2018-12-21T21:56:46.622Z,0.60
2018-12-21T21:59:19.583Z,0.50
2018-12-21T22:01:52.579Z,0.53
2018-12-21T22:04:25.541Z,0.50
2018-12-21T22:06:58.410Z,0.60
2018-12-21T22:09:31.447Z,0.50
2018-12-21T22:12:04.368Z,0.47
2018-12-21T22:14:36.772Z,0.70
2018-12-21T22:17:09.707Z,0.60
2018-12-21T22:19:42.623Z,0.90
2018-12-21T22:22:15.495Z,0.70
2018-12-21T22:24:47.271Z,0.60
2018-12-21T22:27:20.167Z,0.60
2018-12-21T22:29:53.064Z,0.50
2018-12-21T22:32:25.964Z,0.30
2018-12-21T22:34:58.884Z,0.80
2018-12-21T22:37:31.788Z,1.30
2018-12-21T22:40:07.610Z,0.43
2018-12-21T22:42:40.488Z,0.73
2018-12-21T22:45:13.399Z,0.60
2018-12-21T22:47:46.329Z,0.83
2018-12-21T22:50:19.333Z,0.70
2018-12-21T22:52:48.455Z,0.60
2018-12-21T22:55:21.387Z,0.50
2018-12-21T22:57:56.628Z,0.70
2018-12-21T23:00:31.364Z,0.70
2018-12-21T23:03:04.289Z,0.43
2018-12-21T23:05:37.195Z,0.67
2018-12-21T23:08:10.075Z,0.50
2018-12-21T23:10:43.976Z,0.30
2018-12-21T23:13:17.005Z,0.80
2018-12-21T23:15:49.936Z,0.50
2018-12-21T23:18:22.802Z,0.60
2018-12-21T23:20:53.933Z,0.30
2018-12-21T23:23:26.926Z,0.30
2018-12-21T23:25:59.861Z,0.40
2018-12-21T23:28:32.838Z,0.33
2018-12-21T23:31:05.760Z,0.30
2018-12-21T23:33:38.669Z,0.40
2018-12-21T23:36:11.575Z,0.40
2018-12-21T23:38:44.563Z,0.30
2018-12-21T23:41:18.834Z,0.50
2018-12-21T23:43:51.693Z,0.40
2018-12-21T23:46:24.794Z,0.40
2018-12-21T23:48:57.710Z,1.10
2018-12-21T23:51:31.045Z,0.40
2018-12-21T23:54:04.015Z,0.50
2018-12-21T23:56:36.899Z,0.60
2018-12-21T23:59:09.791Z,0.30
